KDPL

Duplin Co Airport

Kenansville, North Carolina, USA
METAR KDPL 171630Z AUTO 25007KT 10SM CLR 31/23 A3014 RMK AO2
Observed Flight Rules
Aug-17 @ 16:30 UTC (22 minutes ago) Visual Flight Rules
Wind Visibility Clouds
250° at 7 knots 10 miles
  • Clear skies
Temperatures Readings
Current 31°C / 88°F
Dewpoint 23°C / 73°F
Humidity 62%
Altimeter 30.14" Hg
Pressure 1021 hPa
Elevation 42
METAR KDPL 171630Z AUTO 25007KT 10SM CLR 31/23 A3014 RMK AO2
Observed Flight Rules
Aug-17 @ 16:30 UTC
(22 minutes ago)
VFR
Wind Visibility
250° at 7 knots 10 miles
Clouds
  • Clear skies
Temperature Dewpoint
31°C / 88°F 23°C / 73°F
Humidity Altimeter Pressure
62% 30.14" Hg 1021 hPa